Time;durP1;ratioP1;P1;durP2;ratioP2;P2;SDS_P1;SDS_P2;PMS_P1;PMS_P2;Temp;Humidity;BMP_temperature;BMP_pressure;BME280_temperature;BME280_humidity;BME280_pressure;Samples;Min_cycle;Max_cycle;Signal;HPM_P1;HPM_P2
2023/01/27 00:00:38;;;;;;;6.32;0.93;;;17.90;1.00;;;;;;5094916;28;20683;-37
2023/01/27 00:03:05;;;;;;;5.47;1.42;;;17.90;1.00;;;;;;5094625;28;20453;-37
2023/01/27 00:05:32;;;;;;;5.32;0.93;;;17.90;1.00;;;;;;5094843;28;20085;-38
2023/01/27 00:07:59;;;;;;;4.63;1.13;;;17.80;1.00;;;;;;5094828;28;20044;-37
2023/01/27 00:10:26;;;;;;;6.65;1.10;;;17.80;1.00;;;;;;5094635;28;20044;-38
2023/01/27 00:15:39;;;;;;;4.20;0.60;;;17.70;1.00;;;;;;5094721;28;20070;-39
2023/01/27 00:18:06;;;;;;;4.05;1.25;;;17.70;1.00;;;;;;5094462;28;20044;-38
2023/01/27 00:26:12;;;;;;;6.53;1.38;;;17.60;1.00;;;;;;5094514;28;20135;-38
2023/01/27 00:28:42;;;;;;;5.32;0.80;;;17.50;1.00;;;;;;5094383;28;20044;-37
2023/01/27 00:34:07;;;;;;;5.00;1.63;;;17.50;1.00;;;;;;5093738;28;20046;-38
2023/01/27 00:36:36;;;;;;;2.42;0.70;;;17.50;1.00;;;;;;5093643;28;20036;-38
2023/01/27 00:39:04;;;;;;;6.85;1.55;;;17.40;1.00;;;;;;5094124;28;20028;-38
2023/01/27 00:41:32;;;;;;;4.82;1.10;;;17.40;1.00;;;;;;5094031;28;20081;-38
2023/01/27 00:44:00;;;;;;;2.60;0.80;;;17.40;1.00;;;;;;5092441;28;20040;-38
2023/01/27 00:46:27;;;;;;;4.35;0.88;;;17.30;1.00;;;;;;5092734;28;20139;-38
2023/01/27 00:48:54;;;;;;;4.20;0.90;;;17.30;1.00;;;;;;5094034;28;20055;-38
2023/01/27 00:51:21;;;;;;;6.00;1.08;;;17.30;1.00;;;;;;5094103;28;20392;-38
2023/01/27 00:53:48;;;;;;;2.65;0.80;;;17.30;1.00;;;;;;5093591;28;20044;-38
2023/01/27 00:56:16;;;;;;;6.25;1.15;;;17.20;1.00;;;;;;5093790;28;20040;-38
2023/01/27 00:58:43;;;;;;;1.75;0.98;;;17.20;1.00;;;;;;5092478;28;20044;-38
2023/01/27 01:01:12;;;;;;;4.93;0.93;;;17.20;1.00;;;;;;5093663;28;20052;-38
2023/01/27 01:03:39;;;;;;;5.80;1.20;;;17.20;1.00;;;;;;5092109;28;20044;-37
2023/01/27 01:06:09;;;;;;;4.45;1.05;;;17.20;1.00;;;;;;5093600;28;20093;-38
2023/01/27 01:08:37;;;;;;;5.28;0.85;;;17.20;1.00;;;;;;5092350;28;20052;-39
2023/01/27 01:11:06;;;;;;;8.00;0.85;;;17.10;1.00;;;;;;5091946;28;20454;-37
2023/01/27 01:13:33;;;;;;;2.92;0.85;;;17.10;1.00;;;;;;5093510;28;20054;-38
2023/01/27 01:16:06;;;;;;;4.05;1.08;;;17.10;1.00;;;;;;5092104;28;20080;-38
2023/01/27 01:18:33;;;;;;;1.67;0.70;;;17.00;1.00;;;;;;5093431;28;20046;-38
2023/01/27 01:21:00;;;;;;;5.25;0.93;;;17.00;1.00;;;;;;5091815;28;20499;-38
2023/01/27 01:23:27;;;;;;;4.43;0.75;;;17.00;1.00;;;;;;5079946;28;20109;-38
2023/01/27 01:25:56;;;;;;;1.13;0.70;;;16.90;1.00;;;;;;5083357;28;20131;-38
2023/01/27 01:28:23;;;;;;;2.08;0.68;;;16.90;1.00;;;;;;5084395;28;20048;-38
2023/01/27 01:30:50;;;;;;;4.50;1.13;;;16.90;1.00;;;;;;5083241;28;20453;-38
2023/01/27 01:33:17;;;;;;;7.45;1.05;;;16.90;1.00;;;;;;5092862;28;20044;-37
2023/01/27 01:35:44;;;;;;;1.80;0.50;;;16.90;1.00;;;;;;5091880;28;20500;-37
2023/01/27 01:38:11;;;;;;;2.10;0.88;;;16.80;1.00;;;;;;5092882;28;20041;-38
2023/01/27 01:40:42;;;;;;;4.00;0.82;;;16.80;1.00;;;;;;5092932;28;20070;-39
2023/01/27 01:43:15;;;;;;;4.63;1.15;;;16.80;1.00;;;;;;5092796;28;20101;-37
2023/01/27 01:45:45;;;;;;;2.08;0.50;;;16.70;1.00;;;;;;5092705;28;20075;-38
2023/01/27 01:48:22;;;;;;;2.50;0.75;;;16.70;1.00;;;;;;5091715;28;20090;-37
2023/01/27 01:51:02;;;;;;;3.35;0.70;;;16.70;1.00;;;;;;5091421;28;20074;-38
2023/01/27 01:53:35;;;;;;;5.03;1.08;;;16.70;1.00;;;;;;5092620;28;20518;-38
2023/01/27 01:56:09;;;;;;;2.80;0.68;;;16.70;1.00;;;;;;5091533;28;20048;-38
2023/01/27 01:58:38;;;;;;;3.42;1.05;;;16.70;1.00;;;;;;5091521;28;20157;-37
2023/01/27 02:01:06;;;;;;;5.82;1.65;;;16.60;1.00;;;;;;5092676;28;20066;-38
2023/01/27 02:03:37;;;;;;;2.92;0.80;;;16.60;1.00;;;;;;5091010;28;20052;-38
2023/01/27 02:06:05;;;;;;;3.85;0.90;;;16.50;1.00;;;;;;5092592;28;20479;-38
2023/01/27 02:08:41;;;;;;;2.53;0.63;;;16.60;1.00;;;;;;5092601;28;20395;-39
2023/01/27 02:11:08;;;;;;;5.30;0.73;;;16.50;1.00;;;;;;5091212;28;20548;-39
2023/01/27 02:13:38;;;;;;;7.43;1.33;;;16.50;1.00;;;;;;5092033;28;20116;-39
2023/01/27 02:16:08;;;;;;;6.68;0.90;;;16.50;1.00;;;;;;5092318;28;20040;-39
2023/01/27 02:18:35;;;;;;;6.00;1.20;;;16.50;1.00;;;;;;5092369;28;20044;-38
2023/01/27 02:21:03;;;;;;;4.95;1.27;;;16.50;1.00;;;;;;5092170;28;20043;-38
2023/01/27 02:23:43;;;;;;;4.47;0.98;;;16.50;1.00;;;;;;5092062;28;20040;-39
2023/01/27 02:26:12;;;;;;;3.47;0.90;;;16.40;1.00;;;;;;5092143;28;20074;-39
2023/01/27 02:28:39;;;;;;;4.70;1.02;;;16.40;1.00;;;;;;5091217;28;20050;-38
2023/01/27 02:31:06;;;;;;;1.70;0.65;;;16.40;1.00;;;;;;5092070;28;20516;-38
2023/01/27 02:33:33;;;;;;;4.05;1.00;;;16.40;1.00;;;;;;5091921;28;20048;-38
2023/01/27 02:36:15;;;;;;;2.80;1.02;;;16.40;1.00;;;;;;5090853;28;20044;-38
2023/01/27 02:38:51;;;;;;;5.05;1.05;;;16.30;1.00;;;;;;5091971;28;20044;-38
2023/01/27 02:41:35;;;;;;;3.72;1.00;;;16.30;1.00;;;;;;5092129;28;20044;-38
2023/01/27 02:44:02;;;;;;;3.17;0.85;;;16.30;1.00;;;;;;5090615;28;20062;-37
2023/01/27 02:46:29;;;;;;;3.50;0.82;;;16.30;1.00;;;;;;5090893;28;20044;-38
2023/01/27 02:48:57;;;;;;;2.85;0.65;;;16.30;1.00;;;;;;5090575;28;20415;-38
2023/01/27 02:51:24;;;;;;;4.47;1.13;;;16.20;1.00;;;;;;5090677;28;20052;-39
2023/01/27 02:53:51;;;;;;;4.30;1.58;;;16.20;1.00;;;;;;5091641;28;20048;-38
2023/01/27 02:56:19;;;;;;;2.78;0.85;;;16.20;1.00;;;;;;5090605;28;20495;-38
2023/01/27 02:58:46;;;;;;;4.57;0.93;;;16.20;1.00;;;;;;5092849;28;20040;-38
2023/01/27 03:01:24;;;;;;;1.83;1.00;;;16.20;1.00;;;;;;5094753;28;20040;-39
2023/01/27 03:03:51;;;;;;;3.58;0.80;;;16.20;1.00;;;;;;5095687;28;20040;-38
2023/01/27 03:06:19;;;;;;;2.40;0.85;;;16.10;1.00;;;;;;5094705;28;20042;-38
2023/01/27 03:08:46;;;;;;;4.88;1.15;;;16.10;1.00;;;;;;5094838;28;20048;-38
2023/01/27 03:12:18;;;;;;;4.60;0.90;;;16.10;1.00;;;;;;5063025;22;20072;-39
2023/01/27 03:14:02;;;;;;;1.60;0.47;;;16.10;1.00;;;;;;5029980;28;20052;-38
2023/01/27 03:19:15;;;;;;;4.68;0.85;;;16.00;1.00;;;;;;5018554;28;20080;-39
2023/01/27 03:21:44;;;;;;;3.70;0.82;;;16.10;1.00;;;;;;5034244;28;20045;-38
2023/01/27 03:24:11;;;;;;;1.90;0.73;;;16.00;1.00;;;;;;5033746;28;20084;-39
2023/01/27 03:26:38;;;;;;;1.92;0.65;;;16.00;1.00;;;;;;5022252;28;20136;-40
2023/01/27 03:31:52;;;;;;;1.33;0.70;;;16.00;1.00;;;;;;5035276;28;20048;-39
2023/01/27 03:34:19;;;;;;;2.45;0.57;;;16.00;1.00;;;;;;5017262;28;20409;-38
2023/01/27 03:47:51;;;;;;;3.63;0.50;;;15.90;1.00;;;;;;5035143;28;20417;-39
2023/01/27 03:50:18;;;;;;;2.70;0.60;;;15.90;1.00;;;;;;5034873;28;20049;-39
2023/01/27 03:53:01;;;;;;;1.45;0.55;;;15.90;1.00;;;;;;5034797;28;20120;-38
2023/01/27 03:55:33;;;;;;;4.40;0.90;;;15.80;1.00;;;;;;5034739;28;20076;-39
2023/01/27 03:58:13;;;;;;;6.03;0.80;;;15.80;1.00;;;;;;5035090;28;20041;-39
2023/01/27 04:00:40;;;;;;;2.88;0.60;;;15.80;1.00;;;;;;5034765;28;20042;-39
2023/01/27 04:08:40;;;;;;;3.10;0.60;;;15.70;1.00;;;;;;5034638;28;20068;-39
2023/01/27 04:13:53;;;;;;;2.13;0.68;;;15.70;1.00;;;;;;5034277;28;20096;-39
2023/01/27 04:16:27;;;;;;;2.95;0.82;;;15.70;1.00;;;;;;5034420;28;20132;-39
2023/01/27 04:18:55;;;;;;;1.08;0.45;;;15.70;1.00;;;;;;5034308;28;20120;-39
2023/01/27 04:21:24;;;;;;;2.80;0.68;;;15.70;1.00;;;;;;5034456;28;20041;-39
2023/01/27 04:23:52;;;;;;;5.07;1.23;;;15.70;1.00;;;;;;5034103;28;20640;-39
2023/01/27 04:26:19;;;;;;;1.55;0.45;;;15.60;1.00;;;;;;5034227;28;20042;-39
2023/01/27 04:28:46;;;;;;;1.33;0.63;;;15.60;1.00;;;;;;5034237;28;20120;-39
2023/01/27 04:31:14;;;;;;;2.33;0.52;;;15.60;1.00;;;;;;5034048;28;20743;-39
2023/01/27 04:33:42;;;;;;;1.58;0.50;;;15.60;1.00;;;;;;5033976;28;20041;-40
2023/01/27 04:36:14;;;;;;;2.65;0.70;;;15.60;1.00;;;;;;5034072;28;20125;-39
2023/01/27 04:38:41;;;;;;;2.00;0.40;;;15.60;1.00;;;;;;5034499;28;20429;-39
2023/01/27 04:41:08;;;;;;;2.60;0.70;;;15.60;1.00;;;;;;5034052;28;20456;-39
2023/01/27 04:43:35;;;;;;;0.90;0.45;;;15.60;1.00;;;;;;5033613;28;20470;-40
2023/01/27 04:46:02;;;;;;;1.45;0.55;;;15.60;1.00;;;;;;5033918;28;20038;-40
2023/01/27 04:48:29;;;;;;;2.83;0.35;;;15.50;1.00;;;;;;5033981;28;20051;-39
2023/01/27 04:50:56;;;;;;;1.63;0.57;;;15.50;1.00;;;;;;5033720;28;20041;-39
2023/01/27 04:53:23;;;;;;;1.55;1.10;;;15.50;1.00;;;;;;5033526;28;20416;-39
2023/01/27 04:55:50;;;;;;;1.05;0.35;;;15.50;1.00;;;;;;5033694;28;20042;-39
2023/01/27 04:58:17;;;;;;;2.67;0.73;;;15.50;1.00;;;;;;5033652;28;20633;-39
2023/01/27 05:00:44;;;;;;;1.58;0.35;;;15.50;1.00;;;;;;5033548;28;20428;-40
2023/01/27 05:03:11;;;;;;;1.70;0.57;;;15.50;1.00;;;;;;5033277;28;20042;-39
2023/01/27 05:05:38;;;;;;;3.33;0.70;;;15.50;1.00;;;;;;5033513;28;20103;-39
2023/01/27 05:08:06;;;;;;;2.70;0.45;;;15.50;1.00;;;;;;5032827;28;20046;-40
2023/01/27 05:10:33;;;;;;;3.22;0.60;;;15.40;1.00;;;;;;5029874;28;20034;-40
2023/01/27 05:13:00;;;;;;;2.13;0.50;;;15.40;1.00;;;;;;5033030;28;20547;-39
2023/01/27 05:15:29;;;;;;;1.30;0.43;;;15.40;1.00;;;;;;5033309;28;20053;-39
2023/01/27 05:17:56;;;;;;;2.88;0.68;;;15.40;1.00;;;;;;5033225;28;20041;-40
2023/01/27 05:20:22;;;;;;;4.15;0.55;;;15.40;1.00;;;;;;5032862;28;20049;-38
2023/01/27 05:22:50;;;;;;;1.40;0.55;;;15.40;1.00;;;;;;5032833;28;20124;-38
2023/01/27 05:25:17;;;;;;;9.73;0.80;;;15.30;1.00;;;;;;5033076;28;20049;-39
2023/01/27 05:27:44;;;;;;;5.78;1.08;;;15.30;1.00;;;;;;5033223;28;20045;-38
2023/01/27 05:30:11;;;;;;;3.22;1.20;;;15.30;1.00;;;;;;5033072;28;20037;-38
2023/01/27 05:32:38;;;;;;;7.35;0.90;;;15.30;1.00;;;;;;5032659;28;20057;-39
2023/01/27 05:35:05;;;;;;;6.20;0.57;;;15.30;1.00;;;;;;5033022;28;20045;-39
2023/01/27 05:37:32;;;;;;;5.28;0.55;;;15.30;1.00;;;;;;5032860;28;20045;-39
2023/01/27 05:39:59;;;;;;;2.60;0.50;;;15.30;1.00;;;;;;5031609;28;20235;-39
2023/01/27 05:42:26;;;;;;;1.77;0.55;;;15.30;1.00;;;;;;5032759;28;20041;-39
2023/01/27 05:44:52;;;;;;;14.93;0.75;;;15.30;1.00;;;;;;5032763;28;20087;-39
2023/01/27 05:47:19;;;;;;;2.88;0.63;;;15.20;1.00;;;;;;5032833;28;20041;-39
2023/01/27 05:49:46;;;;;;;3.70;0.55;;;15.30;1.00;;;;;;5032690;28;20052;-39
2023/01/27 05:52:13;;;;;;;2.55;0.55;;;15.20;1.00;;;;;;5032680;28;20374;-39
2023/01/27 05:54:39;;;;;;;1.33;0.30;;;15.20;1.00;;;;;;5029658;28;20068;-40
2023/01/27 05:57:06;;;;;;;6.90;0.68;;;15.20;1.00;;;;;;5031949;28;20160;-39
2023/01/27 05:59:33;;;;;;;3.90;0.60;;;15.20;1.00;;;;;;5031231;28;20041;-40
2023/01/27 06:02:00;;;;;;;3.78;0.50;;;15.20;1.00;;;;;;5032210;28;20041;-39
2023/01/27 06:04:27;;;;;;;2.55;0.28;;;15.20;1.00;;;;;;5031093;28;20065;-40
2023/01/27 06:06:54;;;;;;;4.07;0.43;;;15.20;1.00;;;;;;5031003;28;20041;-39
2023/01/27 06:09:21;;;;;;;2.35;0.50;;;15.10;1.00;;;;;;5032511;28;20111;-38
2023/01/27 06:11:47;;;;;;;3.83;0.90;;;15.10;1.00;;;;;;5032138;28;20045;-38
2023/01/27 06:14:14;;;;;;;3.53;0.65;;;15.10;1.00;;;;;;5032076;28;20493;-38
2023/01/27 06:16:42;;;;;;;4.15;0.40;;;15.10;1.00;;;;;;5032252;28;20045;-38
2023/01/27 06:19:09;;;;;;;1.55;0.40;;;15.10;1.00;;;;;;5032181;28;20045;-38
2023/01/27 06:21:37;;;;;;;2.20;0.20;;;15.10;1.00;;;;;;5030817;28;20041;-39
2023/01/27 06:24:04;;;;;;;3.58;0.68;;;15.10;1.00;;;;;;5031974;28;20509;-39
2023/01/27 06:26:30;;;;;;;3.03;0.55;;;15.10;1.00;;;;;;5032138;28;20037;-39
2023/01/27 06:28:57;;;;;;;0.50;0.20;;;15.10;1.00;;;;;;5032181;28;20049;-39
2023/01/27 06:31:26;;;;;;;3.25;0.90;;;15.00;1.00;;;;;;5032001;28;20050;-38
2023/01/27 06:33:53;;;;;;;0.82;0.30;;;15.00;1.00;;;;;;5031139;28;20415;-38
2023/01/27 06:36:21;;;;;;;1.92;0.65;;;15.00;1.00;;;;;;5030787;28;20049;-40
2023/01/27 06:38:48;;;;;;;3.83;0.47;;;15.00;1.00;;;;;;5031841;28;20459;-38
2023/01/27 06:41:16;;;;;;;0.77;0.35;;;15.00;1.00;;;;;;5031902;28;20503;-38
2023/01/27 06:43:42;;;;;;;1.25;0.45;;;15.00;1.00;;;;;;5031739;28;20658;-39
2023/01/27 06:46:09;;;;;;;1.08;0.40;;;15.00;1.00;;;;;;5031864;28;20049;-40
2023/01/27 06:48:39;;;;;;;1.17;0.50;;;14.90;1.00;;;;;;5031760;28;20096;-39
2023/01/27 06:51:06;;;;;;;3.30;0.57;;;15.00;1.00;;;;;;5031779;28;20132;-39
2023/01/27 06:53:35;;;;;;;2.90;0.77;;;14.90;1.00;;;;;;5031587;28;20053;-39
2023/01/27 06:56:02;;;;;;;3.45;0.38;;;14.90;1.00;;;;;;5031727;28;20061;-38
2023/01/27 06:58:29;;;;;;;2.38;0.40;;;14.90;1.00;;;;;;5031675;28;20070;-39
2023/01/27 07:00:56;;;;;;;1.33;0.20;;;14.90;1.00;;;;;;5031567;28;20034;-39
2023/01/27 07:03:24;;;;;;;2.35;0.43;;;14.90;1.00;;;;;;5030157;28;20448;-38
2023/01/27 07:05:52;;;;;;;3.20;0.90;;;14.90;1.00;;;;;;5031613;28;20034;-39
2023/01/27 07:08:18;;;;;;;1.75;0.98;;;14.90;1.00;;;;;;5031722;28;20044;-39
2023/01/27 07:10:45;;;;;;;2.28;0.57;;;14.90;1.00;;;;;;5031556;28;20168;-38
2023/01/27 07:13:13;;;;;;;3.47;0.45;;;14.90;1.00;;;;;;5031327;28;20452;-39
2023/01/27 07:15:41;;;;;;;2.03;0.65;;;14.90;1.00;;;;;;5031470;28;20060;-38
2023/01/27 07:18:10;;;;;;;2.55;0.50;;;14.80;1.00;;;;;;5031579;28;20033;-38
2023/01/27 07:20:37;;;;;;;1.23;0.30;;;14.80;1.00;;;;;;5031468;28;20033;-38
2023/01/27 07:23:04;;;;;;;4.10;0.50;;;14.80;1.00;;;;;;5031141;28;20119;-38
2023/01/27 07:25:33;;;;;;;2.22;0.60;;;14.80;1.00;;;;;;5030868;28;20124;-39
2023/01/27 07:28:01;;;;;;;1.10;0.50;;;14.80;1.00;;;;;;5026918;28;20088;-40
2023/01/27 07:30:28;;;;;;;2.40;0.43;;;14.80;1.00;;;;;;5026038;28;20057;-39
2023/01/27 07:33:06;;;;;;;1.08;0.38;;;14.80;1.00;;;;;;5024139;28;20072;-39
2023/01/27 07:35:38;;;;;;;3.58;0.45;;;14.80;1.00;;;;;;5025427;28;20049;-39
2023/01/27 07:38:06;;;;;;;1.48;0.73;;;14.70;1.00;;;;;;5029635;28;20042;-39
2023/01/27 07:40:33;;;;;;;2.95;0.50;;;14.70;1.00;;;;;;5031043;28;20527;-39
2023/01/27 07:43:01;;;;;;;3.70;0.60;;;14.70;1.00;;;;;;5030971;28;20045;-38
2023/01/27 07:45:28;;;;;;;1.95;0.40;;;14.70;1.00;;;;;;5033261;28;20635;-38
2023/01/27 07:48:02;;;;;;;1.30;0.30;;;14.70;1.00;;;;;;5034963;28;20041;-38
2023/01/27 07:50:29;;;;;;;1.60;0.35;;;14.70;1.00;;;;;;5034902;28;20095;-38
2023/01/27 07:53:03;;;;;;;0.57;0.32;;;14.70;1.00;;;;;;5034731;28;20048;-38
2023/01/27 07:55:32;;;;;;;5.55;0.63;;;14.70;1.00;;;;;;5034908;28;20045;-38
2023/01/27 07:57:59;;;;;;;2.30;0.40;;;14.60;1.00;;;;;;5034517;28;20042;-38
2023/01/27 08:00:29;;;;;;;0.73;0.32;;;14.60;1.00;;;;;;5034816;28;20389;-39
2023/01/27 08:03:01;;;;;;;1.38;0.43;;;14.60;1.00;;;;;;5034529;28;20041;-38
2023/01/27 08:05:34;;;;;;;4.25;0.40;;;14.60;1.00;;;;;;5034513;28;20045;-38
2023/01/27 08:08:20;;;;;;;2.38;0.43;;;14.60;1.00;;;;;;5034667;28;20048;-38
2023/01/27 08:11:02;;;;;;;1.50;0.20;;;14.60;1.00;;;;;;5034363;28;20570;-38
2023/01/27 08:13:31;;;;;;;2.65;0.50;;;14.60;1.00;;;;;;5034224;28;20048;-39
2023/01/27 08:15:58;;;;;;;2.40;0.40;;;14.60;1.00;;;;;;5034401;28;20566;-39
2023/01/27 08:18:27;;;;;;;2.45;0.40;;;14.60;1.00;;;;;;5034417;28;20045;-39
2023/01/27 08:20:54;;;;;;;1.02;0.40;;;14.60;1.00;;;;;;5034403;28;20050;-40
2023/01/27 08:23:21;;;;;;;1.48;0.40;;;14.50;1.00;;;;;;5034063;28;20124;-39
2023/01/27 08:25:52;;;;;;;2.72;0.57;;;14.50;1.00;;;;;;5034340;28;20052;-40
2023/01/27 08:28:20;;;;;;;4.35;0.60;;;14.50;1.00;;;;;;5034194;28;20045;-39
2023/01/27 08:30:50;;;;;;;1.48;0.30;;;14.50;1.00;;;;;;5033967;28;20044;-39
2023/01/27 08:33:19;;;;;;;1.85;0.40;;;14.50;1.00;;;;;;5033815;28;20040;-39
2023/01/27 08:35:46;;;;;;;4.50;0.50;;;14.50;1.00;;;;;;5033921;28;20067;-40
2023/01/27 08:38:15;;;;;;;1.77;0.30;;;14.50;1.00;;;;;;5034094;28;20056;-39
2023/01/27 08:40:42;;;;;;;2.85;0.68;;;14.50;1.00;;;;;;5033961;28;20072;-39
2023/01/27 08:43:10;;;;;;;1.23;0.30;;;14.50;1.00;;;;;;5033583;28;20451;-39
2023/01/27 08:45:37;;;;;;;2.38;0.50;;;14.50;1.00;;;;;;5016440;28;20053;-39
2023/01/27 08:48:05;;;;;;;1.42;0.70;;;14.40;1.00;;;;;;5033857;28;20120;-39
2023/01/27 08:50:32;;;;;;;2.20;0.43;;;14.40;1.00;;;;;;5033773;28;20049;-39
2023/01/27 08:53:00;;;;;;;1.17;0.30;;;14.50;1.00;;;;;;5033505;28;20087;-39
2023/01/27 08:55:28;;;;;;;0.85;0.40;;;14.40;1.00;;;;;;5032920;28;20128;-39
2023/01/27 08:57:55;;;;;;;1.20;0.55;;;14.40;1.00;;;;;;5034059;28;20049;-39
2023/01/27 09:00:22;;;;;;;0.88;0.30;;;14.40;1.00;;;;;;5033517;28;20556;-39
2023/01/27 09:02:51;;;;;;;3.47;0.50;;;14.40;1.00;;;;;;5033292;28;20052;-39
2023/01/27 09:05:18;;;;;;;0.43;0.17;;;14.40;1.00;;;;;;5033493;28;20042;-39
2023/01/27 09:07:45;;;;;;;1.75;0.30;;;14.40;1.00;;;;;;5033380;28;20041;-39
2023/01/27 09:10:14;;;;;;;2.47;0.40;;;14.40;1.00;;;;;;5043249;22;20227;-40
2023/01/27 09:12:46;;;;;;;0.85;0.35;;;14.40;1.00;;;;;;5032781;28;20068;-40
2023/01/27 09:15:14;;;;;;;0.93;0.30;;;14.30;1.00;;;;;;5033473;28;20038;-40
2023/01/27 09:17:41;;;;;;;2.03;0.88;;;14.30;1.00;;;;;;5033410;28;20033;-40
2023/01/27 09:20:09;;;;;;;2.05;0.43;;;14.40;1.00;;;;;;5033077;28;20041;-40
2023/01/27 09:22:41;;;;;;;5.47;0.57;;;14.30;1.00;;;;;;5032933;28;20041;-41
2023/01/27 09:25:14;;;;;;;1.05;0.60;;;14.30;1.00;;;;;;5033245;28;20054;-40
2023/01/27 09:27:41;;;;;;;2.47;0.57;;;14.30;1.00;;;;;;5033193;28;20457;-40
2023/01/27 09:30:10;;;;;;;1.98;0.28;;;14.30;1.00;;;;;;5032916;28;20060;-40
2023/01/27 09:32:39;;;;;;;3.70;0.75;;;14.30;1.00;;;;;;5032724;28;20052;-40
2023/01/27 09:35:06;;;;;;;1.50;0.40;;;14.30;1.00;;;;;;5032908;28;20048;-40
2023/01/27 09:37:39;;;;;;;1.65;0.45;;;14.30;1.00;;;;;;5032959;28;20612;-41
2023/01/27 09:40:27;;;;;;;1.20;0.30;;;14.30;1.00;;;;;;5032725;28;20046;-40
2023/01/27 09:43:24;;;;;;;2.28;0.47;;;14.30;1.00;;;;;;5032587;28;20037;-40
2023/01/27 09:46:25;;;;;;;1.38;0.60;;;14.30;1.00;;;;;;5032743;28;20509;-40
2023/01/27 09:48:58;;;;;;;1.58;0.60;;;14.20;1.00;;;;;;5032649;28;20105;-40
2023/01/27 09:51:37;;;;;;;0.93;0.40;;;14.20;1.00;;;;;;5032687;28;20054;-40
2023/01/27 09:54:30;;;;;;;4.00;0.50;;;14.20;1.00;;;;;;5032453;28;20049;-40
2023/01/27 09:57:13;;;;;;;0.98;0.30;;;14.20;1.00;;;;;;5032451;28;20128;-40
2023/01/27 10:00:10;;;;;;;2.05;0.47;;;14.20;1.00;;;;;;5032583;28;20073;-40
2023/01/27 10:03:06;;;;;;;0.90;0.40;;;14.20;1.00;;;;;;5032264;28;20050;-41
2023/01/27 10:06:07;;;;;;;1.30;0.55;;;14.20;1.00;;;;;;5032460;28;20038;-41
2023/01/27 10:08:46;;;;;;;0.80;0.35;;;14.20;1.00;;;;;;5030372;28;20073;-40
2023/01/27 10:11:28;;;;;;;0.60;0.30;;;14.20;1.00;;;;;;5032045;28;20540;-40
2023/01/27 10:14:03;;;;;;;1.42;0.40;;;14.20;1.00;;;;;;5032158;28;20044;-40
2023/01/27 10:17:23;;;;;;;1.02;0.47;;;14.20;1.00;;;;;;5032259;28;20528;-41
2023/01/27 10:20:59;;;;;;;1.42;0.30;;;14.20;1.00;;;;;;5015041;28;20049;-41
2023/01/27 10:24:08;;;;;;;0.80;0.30;;;14.20;1.00;;;;;;4932338;29;20099;-40
2023/01/27 10:26:40;;;;;;;1.10;0.38;;;14.20;1.00;;;;;;5032000;28;20103;-40
2023/01/27 10:29:32;;;;;;;1.38;0.40;;;14.20;1.00;;;;;;5032051;28;20045;-40
2023/01/27 10:32:13;;;;;;;2.25;0.28;;;14.20;1.00;;;;;;5031720;28;20140;-41
2023/01/27 10:35:08;;;;;;;1.60;0.50;;;14.10;1.00;;;;;;5031758;28;20060;-40
2023/01/27 10:37:57;;;;;;;0.75;0.38;;;14.20;1.00;;;;;;5028334;28;20053;-38
2023/01/27 10:40:37;;;;;;;2.17;0.50;;;14.10;1.00;;;;;;5031631;28;20048;-40
2023/01/27 10:43:49;;;;;;;0.63;0.20;;;14.10;1.00;;;;;;5031451;28;20104;-40
2023/01/27 10:46:56;;;;;;;3.17;0.35;;;14.10;1.00;;;;;;5013920;28;20472;-40
2023/01/27 10:50:17;;;;;;;0.73;0.28;;;14.10;1.00;;;;;;5031937;28;20041;-40
2023/01/27 10:53:10;;;;;;;1.35;0.45;;;14.10;1.00;;;;;;5010534;28;20061;-40
2023/01/27 10:55:58;;;;;;;3.20;0.73;;;14.10;1.00;;;;;;5031616;28;20432;-40
2023/01/27 10:58:38;;;;;;;2.08;0.30;;;14.10;1.00;;;;;;5031808;28;20054;-40
2023/01/27 11:01:09;;;;;;;0.68;0.32;;;14.10;1.00;;;;;;5031605;28;20116;-40
2023/01/27 11:03:55;;;;;;;1.45;0.90;;;14.10;1.00;;;;;;5031651;28;20052;-41
2023/01/27 11:06:34;;;;;;;0.68;0.30;;;14.10;1.00;;;;;;5031396;28;20516;-40
2023/01/27 11:09:14;;;;;;;3.08;0.40;;;14.10;1.00;;;;;;5031654;28;20099;-40
2023/01/27 11:11:45;;;;;;;1.15;0.40;;;14.10;1.00;;;;;;5031376;28;20052;-40
2023/01/27 11:14:14;;;;;;;2.13;0.32;;;14.10;1.00;;;;;;5031330;28;20140;-40
2023/01/27 11:16:46;;;;;;;2.95;0.55;;;14.00;1.00;;;;;;5031442;28;20080;-40
2023/01/27 11:19:26;;;;;;;1.65;0.40;;;14.00;1.00;;;;;;5032594;28;20088;-40
2023/01/27 11:21:54;;;;;;;1.33;0.60;;;14.00;1.00;;;;;;5035282;28;20129;-40
2023/01/27 11:24:46;;;;;;;0.93;0.30;;;14.00;1.00;;;;;;5017590;28;20053;-40
2023/01/27 11:27:36;;;;;;;0.80;0.20;;;14.10;1.00;;;;;;5035367;28;20044;-40
2023/01/27 11:30:13;;;;;;;1.35;0.40;;;14.10;1.00;;;;;;5035247;28;20099;-40
2023/01/27 11:32:53;;;;;;;2.88;0.47;;;14.00;1.00;;;;;;5034949;28;20493;-40
2023/01/27 11:35:21;;;;;;;3.80;0.43;;;14.10;1.00;;;;;;5035127;28;20065;-40
2023/01/27 11:37:50;;;;;;;0.50;0.15;;;14.00;1.00;;;;;;5035098;28;20050;-40
2023/01/27 11:40:24;;;;;;;0.50;0.22;;;14.00;1.00;;;;;;5034741;28;20117;-40
2023/01/27 11:42:51;;;;;;;1.30;0.30;;;14.00;1.00;;;;;;5034855;28;20048;-40
2023/01/27 11:45:19;;;;;;;2.95;0.40;;;14.00;1.00;;;;;;5035078;28;20049;-40
2023/01/27 11:47:55;;;;;;;0.90;0.30;;;14.00;1.00;;;;;;5035215;28;20447;-40
2023/01/27 11:50:30;;;;;;;0.63;0.20;;;14.00;1.00;;;;;;5034985;28;20053;-40
2023/01/27 11:53:14;;;;;;;2.42;0.52;;;14.00;1.00;;;;;;5034638;28;20107;-40
2023/01/27 11:55:49;;;;;;;1.55;0.30;;;14.00;1.00;;;;;;5034856;28;20037;-40
2023/01/27 11:58:32;;;;;;;1.63;0.30;;;14.00;1.00;;;;;;5034887;28;20053;-40
2023/01/27 12:01:14;;;;;;;2.15;0.30;;;14.00;1.00;;;;;;5034580;28;20046;-40
2023/01/27 12:03:54;;;;;;;1.40;0.30;;;14.00;1.00;;;;;;5034711;28;20120;-40
2023/01/27 12:06:47;;;;;;;2.92;0.35;;;14.00;1.00;;;;;;5034486;28;20045;-40
2023/01/27 12:09:36;;;;;;;1.92;0.30;;;14.00;1.00;;;;;;5030177;28;20072;-40
2023/01/27 12:12:10;;;;;;;2.00;0.30;;;14.00;1.00;;;;;;5034506;28;20534;-40
2023/01/27 12:14:37;;;;;;;3.13;0.75;;;14.00;1.00;;;;;;5034428;28;20504;-40
2023/01/27 12:17:06;;;;;;;1.92;0.47;;;14.00;1.00;;;;;;5034187;28;20088;-40
2023/01/27 12:19:41;;;;;;;0.30;0.20;;;14.00;1.00;;;;;;5016559;28;20041;-40
2023/01/27 12:22:20;;;;;;;0.70;0.20;;;14.00;1.00;;;;;;5034143;28;20386;-40
2023/01/27 12:24:51;;;;;;;1.27;0.30;;;14.00;1.00;;;;;;5034345;28;20056;-40
2023/01/27 12:27:24;;;;;;;1.88;0.40;;;14.00;1.00;;;;;;5034460;28;20096;-40
2023/01/27 12:29:55;;;;;;;;;;;14.00;1.00;;;;;;5034178;28;20045;-40
2023/01/27 12:32:31;;;;;;;0.50;0.20;;;13.90;1.00;;;;;;5033147;28;19921;-41
2023/01/27 12:35:00;;;;;;;0.88;0.30;;;13.90;1.00;;;;;;5034180;28;20500;-40
2023/01/27 12:37:33;;;;;;;0.85;0.25;;;13.90;1.00;;;;;;5034002;28;20046;-40
2023/01/27 12:40:15;;;;;;;1.10;0.25;;;13.90;1.00;;;;;;5034069;28;20042;-40
2023/01/27 12:42:49;;;;;;;0.82;0.30;;;13.90;1.00;;;;;;5033556;28;20145;-40
2023/01/27 12:45:29;;;;;;;1.40;0.40;;;13.90;1.00;;;;;;5034035;28;20034;-40
2023/01/27 12:47:56;;;;;;;1.02;0.20;;;13.90;1.00;;;;;;5033871;28;20049;-40
2023/01/27 12:50:31;;;;;;;1.50;0.45;;;13.90;1.00;;;;;;5033778;28;20049;-41
2023/01/27 12:53:13;;;;;;;0.30;0.10;;;13.90;1.00;;;;;;5033509;28;20045;-40
2023/01/27 12:55:46;;;;;;;0.68;0.30;;;13.90;1.00;;;;;;5033735;28;20045;-40
2023/01/27 12:58:31;;;;;;;0.50;0.38;;;13.90;1.00;;;;;;5015885;28;20145;-40
2023/01/27 13:01:00;;;;;;;0.45;0.20;;;13.90;1.00;;;;;;5033570;28;20057;-41
2023/01/27 13:03:28;;;;;;;1.27;0.30;;;13.90;1.00;;;;;;5033255;28;20449;-40
2023/01/27 13:05:57;;;;;;;0.50;0.20;;;13.90;1.00;;;;;;5033480;28;20048;-40
2023/01/27 13:08:27;;;;;;;0.43;0.20;;;13.90;1.00;;;;;;5033541;28;20048;-40
2023/01/27 13:10:58;;;;;;;1.35;0.30;;;13.90;1.00;;;;;;5033235;28;20095;-40
2023/01/27 13:13:29;;;;;;;1.17;0.30;;;13.90;1.00;;;;;;5033201;28;20054;-40
2023/01/27 13:16:16;;;;;;;0.40;0.28;;;13.90;1.00;;;;;;5033369;28;20053;-40
2023/01/27 13:18:55;;;;;;;1.33;0.50;;;13.90;1.00;;;;;;5033313;28;20052;-41
2023/01/27 13:21:45;;;;;;;1.48;0.35;;;13.80;1.00;;;;;;5033086;28;20385;-41
2023/01/27 13:24:20;;;;;;;0.50;0.10;;;13.80;1.00;;;;;;5032906;28;20164;-41
2023/01/27 13:26:49;;;;;;;1.58;0.20;;;13.90;1.00;;;;;;5033079;28;20041;-40
2023/01/27 13:29:22;;;;;;;1.13;0.63;;;13.90;1.00;;;;;;5033176;28;20044;-40
2023/01/27 13:32:13;;;;;;;1.13;0.50;;;13.80;1.00;;;;;;5033119;28;20340;-41
2023/01/27 13:34:53;;;;;;;1.02;0.20;;;13.90;1.00;;;;;;5032791;28;20256;-40
2023/01/27 13:37:39;;;;;;;0.32;0.10;;;13.80;1.00;;;;;;5032722;28;20042;-41
2023/01/27 13:40:22;;;;;;;0.80;0.15;;;13.80;1.00;;;;;;5032752;28;20075;-40
2023/01/27 13:43:14;;;;;;;1.38;0.35;;;13.80;1.00;;;;;;5031917;28;20049;-40
2023/01/27 13:45:46;;;;;;;0.40;0.10;;;13.80;1.00;;;;;;5032732;28;20128;-40
2023/01/27 13:48:23;;;;;;;0.40;0.20;;;13.80;1.00;;;;;;5032848;28;20124;-41
2023/01/27 13:51:14;;;;;;;0.65;0.22;;;13.80;1.00;;;;;;5032603;28;20262;-40
2023/01/27 13:53:43;;;;;;;1.75;0.40;;;13.80;1.00;;;;;;5032289;28;20591;-40
2023/01/27 13:56:19;;;;;;;1.80;0.40;;;13.80;1.00;;;;;;5032528;28;20050;-39
2023/01/27 13:59:18;;;;;;;1.02;0.10;;;13.80;1.00;;;;;;5032591;28;20055;-40
2023/01/27 14:02:13;;;;;;;0.50;0.15;;;13.80;1.00;;;;;;5032261;28;20045;-40